sensor_id;sensor_type;location;lat;lon;timestamp;pressure;altitude;pressure_sealevel;temperature;humidity
29815;BME280;16708;50.426;7.664;2023-03-03T00:04:15;991.23;;;0.10;100.00
29815;BME280;16708;50.426;7.664;2023-03-03T00:09:08;991.26;;;0.25;100.00
29815;BME280;16708;50.426;7.664;2023-03-03T00:28:44;991.37;;;0.21;100.00
29815;BME280;16708;50.426;7.664;2023-03-03T00:53:13;991.33;;;-0.26;100.00
29815;BME280;16708;50.426;7.664;2023-03-03T00:58:07;991.48;;;-0.28;100.00
29815;BME280;16708;50.426;7.664;2023-03-03T01:03:01;991.38;;;-0.25;100.00
29815;BME280;16708;50.426;7.664;2023-03-03T01:07:55;991.46;;;-0.49;100.00
29815;BME280;16708;50.426;7.664;2023-03-03T01:12:47;991.53;;;-0.65;100.00
29815;BME280;16708;50.426;7.664;2023-03-03T01:17:41;991.41;;;-0.70;100.00
29815;BME280;16708;50.426;7.664;2023-03-03T01:22:35;991.48;;;-0.70;100.00
29815;BME280;16708;50.426;7.664;2023-03-03T01:27:29;991.44;;;-0.61;100.00
29815;BME280;16708;50.426;7.664;2023-03-03T01:32:23;991.41;;;-0.60;100.00
29815;BME280;16708;50.426;7.664;2023-03-03T01:37:18;991.43;;;-0.66;100.00
29815;BME280;16708;50.426;7.664;2023-03-03T01:47:06;991.45;;;-0.73;100.00
29815;BME280;16708;50.426;7.664;2023-03-03T01:51:59;991.49;;;-0.75;100.00
29815;BME280;16708;50.426;7.664;2023-03-03T01:56:53;991.30;;;-0.85;100.00
29815;BME280;16708;50.426;7.664;2023-03-03T02:01:45;991.34;;;-0.89;100.00
29815;BME280;16708;50.426;7.664;2023-03-03T02:06:40;991.38;;;-0.87;100.00
29815;BME280;16708;50.426;7.664;2023-03-03T02:16:26;991.35;;;-1.07;100.00
29815;BME280;16708;50.426;7.664;2023-03-03T02:21:20;991.46;;;-1.06;100.00
29815;BME280;16708;50.426;7.664;2023-03-03T02:35:59;991.45;;;-1.25;100.00
29815;BME280;16708;50.426;7.664;2023-03-03T02:40:51;991.37;;;-1.21;100.00
29815;BME280;16708;50.426;7.664;2023-03-03T02:45:45;991.37;;;-1.17;100.00
29815;BME280;16708;50.426;7.664;2023-03-03T02:50:39;991.42;;;-1.27;100.00
29815;BME280;16708;50.426;7.664;2023-03-03T02:55:33;991.52;;;-1.35;100.00
29815;BME280;16708;50.426;7.664;2023-03-03T03:00:27;991.44;;;-1.55;100.00
29815;BME280;16708;50.426;7.664;2023-03-03T03:05:20;991.48;;;-1.51;100.00
29815;BME280;16708;50.426;7.664;2023-03-03T03:10:13;991.43;;;-1.32;100.00
29815;BME280;16708;50.426;7.664;2023-03-03T03:15:07;991.46;;;-1.31;100.00
29815;BME280;16708;50.426;7.664;2023-03-03T03:19:58;991.54;;;-1.29;100.00
29815;BME280;16708;50.426;7.664;2023-03-03T03:24:51;991.53;;;-1.37;100.00
29815;BME280;16708;50.426;7.664;2023-03-03T03:29:45;991.65;;;-1.39;100.00
29815;BME280;16708;50.426;7.664;2023-03-03T03:34:40;991.73;;;-1.37;100.00
29815;BME280;16708;50.426;7.664;2023-03-03T03:39:33;991.70;;;-1.48;100.00
29815;BME280;16708;50.426;7.664;2023-03-03T03:44:26;991.73;;;-1.63;100.00
29815;BME280;16708;50.426;7.664;2023-03-03T03:49:21;991.74;;;-1.69;100.00
29815;BME280;16708;50.426;7.664;2023-03-03T03:54:14;991.77;;;-1.69;100.00
29815;BME280;16708;50.426;7.664;2023-03-03T03:59:07;991.77;;;-1.78;100.00
29815;BME280;16708;50.426;7.664;2023-03-03T04:03:58;991.75;;;-2.01;100.00
29815;BME280;16708;50.426;7.664;2023-03-03T04:08:52;991.72;;;-2.13;100.00
29815;BME280;16708;50.426;7.664;2023-03-03T04:13:46;991.77;;;-2.13;100.00
29815;BME280;16708;50.426;7.664;2023-03-03T04:18:40;991.81;;;-2.09;100.00
29815;BME280;16708;50.426;7.664;2023-03-03T04:23:34;991.81;;;-2.15;100.00
29815;BME280;16708;50.426;7.664;2023-03-03T04:28:28;991.74;;;-2.24;100.00
29815;BME280;16708;50.426;7.664;2023-03-03T04:33:21;991.86;;;-2.28;100.00
29815;BME280;16708;50.426;7.664;2023-03-03T04:38:14;991.95;;;-2.24;100.00
29815;BME280;16708;50.426;7.664;2023-03-03T04:43:08;991.85;;;-2.25;100.00
29815;BME280;16708;50.426;7.664;2023-03-03T04:48:02;991.89;;;-2.30;100.00
29815;BME280;16708;50.426;7.664;2023-03-03T04:52:57;991.89;;;-2.38;100.00
29815;BME280;16708;50.426;7.664;2023-03-03T04:57:51;991.97;;;-2.47;100.00
29815;BME280;16708;50.426;7.664;2023-03-03T05:02:45;991.99;;;-2.44;100.00
29815;BME280;16708;50.426;7.664;2023-03-03T05:07:40;991.90;;;-2.63;100.00
29815;BME280;16708;50.426;7.664;2023-03-03T05:12:31;991.98;;;-2.55;100.00
29815;BME280;16708;50.426;7.664;2023-03-03T05:17:25;992.01;;;-2.54;100.00
29815;BME280;16708;50.426;7.664;2023-03-03T05:22:20;992.07;;;-2.43;100.00
29815;BME280;16708;50.426;7.664;2023-03-03T05:27:14;991.85;;;-2.31;100.00
29815;BME280;16708;50.426;7.664;2023-03-03T05:32:08;991.82;;;-2.30;100.00
29815;BME280;16708;50.426;7.664;2023-03-03T05:37:02;991.96;;;-2.18;100.00
29815;BME280;16708;50.426;7.664;2023-03-03T05:41:56;992.03;;;-2.34;100.00
29815;BME280;16708;50.426;7.664;2023-03-03T05:46:47;991.98;;;-2.48;100.00
29815;BME280;16708;50.426;7.664;2023-03-03T05:51:42;992.08;;;-2.57;100.00
29815;BME280;16708;50.426;7.664;2023-03-03T05:56:36;992.17;;;-2.60;100.00
29815;BME280;16708;50.426;7.664;2023-03-03T06:01:30;992.23;;;-2.57;100.00
29815;BME280;16708;50.426;7.664;2023-03-03T06:06:25;992.24;;;-2.40;100.00
29815;BME280;16708;50.426;7.664;2023-03-03T06:11:19;992.34;;;-2.34;100.00
29815;BME280;16708;50.426;7.664;2023-03-03T06:16:14;992.39;;;-2.42;100.00
29815;BME280;16708;50.426;7.664;2023-03-03T06:21:08;992.43;;;-2.16;100.00
29815;BME280;16708;50.426;7.664;2023-03-03T06:26:05;992.53;;;-2.15;100.00
29815;BME280;16708;50.426;7.664;2023-03-03T06:30:54;992.48;;;-2.15;100.00
29815;BME280;16708;50.426;7.664;2023-03-03T06:35:48;992.46;;;-2.07;100.00
29815;BME280;16708;50.426;7.664;2023-03-03T06:40:40;992.68;;;-1.99;100.00
29815;BME280;16708;50.426;7.664;2023-03-03T06:45:34;992.66;;;-2.12;100.00
29815;BME280;16708;50.426;7.664;2023-03-03T07:00:16;992.90;;;-1.79;100.00
29815;BME280;16708;50.426;7.664;2023-03-03T07:05:10;993.01;;;-1.64;100.00
29815;BME280;16708;50.426;7.664;2023-03-03T07:24:47;993.31;;;-0.88;100.00
29815;BME280;16708;50.426;7.664;2023-03-03T07:34:36;993.39;;;-0.52;100.00
29815;BME280;16708;50.426;7.664;2023-03-03T07:39:31;993.41;;;0.98;100.00
29815;BME280;16708;50.426;7.664;2023-03-03T07:49:20;993.49;;;0.69;100.00
29815;BME280;16708;50.426;7.664;2023-03-03T08:08:56;993.70;;;0.63;100.00
29815;BME280;16708;50.426;7.664;2023-03-03T08:23:39;993.74;;;0.78;100.00
29815;BME280;16708;50.426;7.664;2023-03-03T08:28:34;993.67;;;1.41;100.00
29815;BME280;16708;50.426;7.664;2023-03-03T08:33:28;993.75;;;1.89;100.00
29815;BME280;16708;50.426;7.664;2023-03-03T08:38:22;993.71;;;1.71;100.00
29815;BME280;16708;50.426;7.664;2023-03-03T08:43:17;993.78;;;2.04;100.00
29815;BME280;16708;50.426;7.664;2023-03-03T08:48:12;993.84;;;2.27;100.00
29815;BME280;16708;50.426;7.664;2023-03-03T08:53:09;993.95;;;2.64;100.00
29815;BME280;16708;50.426;7.664;2023-03-03T08:57:59;993.91;;;2.20;100.00
29815;BME280;16708;50.426;7.664;2023-03-03T09:02:51;993.97;;;2.51;100.00
29815;BME280;16708;50.426;7.664;2023-03-03T09:07:45;993.89;;;2.98;100.00
29815;BME280;16708;50.426;7.664;2023-03-03T09:22:29;994.18;;;1.95;100.00
29815;BME280;16708;50.426;7.664;2023-03-03T09:47:00;994.34;;;4.20;100.00
29815;BME280;16708;50.426;7.664;2023-03-03T10:16:24;994.41;;;2.61;100.00
29815;BME280;16708;50.426;7.664;2023-03-03T10:21:18;994.49;;;3.14;100.00
29815;BME280;16708;50.426;7.664;2023-03-03T10:26:13;994.51;;;2.85;100.00
29815;BME280;16708;50.426;7.664;2023-03-03T10:36:01;994.61;;;4.15;100.00
29815;BME280;16708;50.426;7.664;2023-03-03T10:55:39;994.92;;;3.81;100.00
29815;BME280;16708;50.426;7.664;2023-03-03T11:15:18;994.79;;;7.29;78.72
29815;BME280;16708;50.426;7.664;2023-03-03T11:44:44;994.55;;;11.12;51.59
29815;BME280;16708;50.426;7.664;2023-03-03T11:49:39;994.46;;;12.39;47.64
29815;BME280;16708;50.426;7.664;2023-03-03T11:54:33;994.47;;;10.16;53.41
29815;BME280;16708;50.426;7.664;2023-03-03T12:04:23;994.32;;;13.17;43.35
29815;BME280;16708;50.426;7.664;2023-03-03T12:14:11;994.21;;;11.70;46.25
29815;BME280;16708;50.426;7.664;2023-03-03T12:19:05;994.14;;;12.40;43.76
29815;BME280;16708;50.426;7.664;2023-03-03T12:28:54;994.04;;;13.82;40.31
29815;BME280;16708;50.426;7.664;2023-03-03T12:33:49;993.94;;;13.54;41.55
29815;BME280;16708;50.426;7.664;2023-03-03T12:38:43;993.91;;;13.90;40.16
29815;BME280;16708;50.426;7.664;2023-03-03T12:53:26;993.73;;;13.38;41.17
29815;BME280;16708;50.426;7.664;2023-03-03T13:17:56;993.50;;;13.02;41.46
29815;BME280;16708;50.426;7.664;2023-03-03T13:22:49;993.57;;;16.45;35.70
29815;BME280;16708;50.426;7.664;2023-03-03T13:27:43;993.62;;;15.32;36.43
29815;BME280;16708;50.426;7.664;2023-03-03T13:32:38;993.59;;;14.30;39.75
29815;BME280;16708;50.426;7.664;2023-03-03T13:57:08;993.45;;;15.28;37.48
29815;BME280;16708;50.426;7.664;2023-03-03T14:06:56;993.42;;;15.77;36.61
29815;BME280;16708;50.426;7.664;2023-03-03T14:21:37;993.43;;;15.35;36.17
29815;BME280;16708;50.426;7.664;2023-03-03T15:05:43;993.29;;;14.13;38.49
29815;BME280;16708;50.426;7.664;2023-03-03T15:10:37;993.23;;;14.87;37.63
29815;BME280;16708;50.426;7.664;2023-03-03T15:20:25;993.03;;;14.30;38.33
29815;BME280;16708;50.426;7.664;2023-03-03T15:30:13;992.95;;;15.14;36.39
29815;BME280;16708;50.426;7.664;2023-03-03T15:35:06;993.08;;;14.74;37.60
29815;BME280;16708;50.426;7.664;2023-03-03T15:40:00;992.96;;;14.35;37.72
29815;BME280;16708;50.426;7.664;2023-03-03T15:44:54;992.97;;;12.26;40.46
29815;BME280;16708;50.426;7.664;2023-03-03T16:04:29;993.20;;;10.19;45.88
29815;BME280;16708;50.426;7.664;2023-03-03T16:09:22;993.15;;;10.10;46.59
29815;BME280;16708;50.426;7.664;2023-03-03T16:43:35;993.48;;;8.06;70.53
29815;BME280;16708;50.426;7.664;2023-03-03T16:53:23;993.62;;;5.15;100.00
29815;BME280;16708;50.426;7.664;2023-03-03T16:58:16;993.74;;;4.54;100.00
29815;BME280;16708;50.426;7.664;2023-03-03T17:22:43;993.89;;;3.38;100.00
29815;BME280;16708;50.426;7.664;2023-03-03T17:42:19;994.11;;;2.60;100.00
29815;BME280;16708;50.426;7.664;2023-03-03T18:21:29;994.59;;;1.48;100.00
29815;BME280;16708;50.426;7.664;2023-03-03T19:00:38;994.82;;;0.67;100.00
29815;BME280;16708;50.426;7.664;2023-03-03T19:05:31;994.78;;;0.71;100.00
29815;BME280;16708;50.426;7.664;2023-03-03T19:10:25;994.79;;;0.65;100.00
29815;BME280;16708;50.426;7.664;2023-03-03T19:59:20;994.96;;;-0.55;100.00
29815;BME280;16708;50.426;7.664;2023-03-03T20:09:08;995.06;;;-0.58;100.00
29815;BME280;16708;50.426;7.664;2023-03-03T20:14:02;995.09;;;-0.61;100.00
29815;BME280;16708;50.426;7.664;2023-03-03T20:18:55;995.13;;;-0.65;100.00
29815;BME280;16708;50.426;7.664;2023-03-03T20:28:43;995.16;;;-0.78;100.00
29815;BME280;16708;50.426;7.664;2023-03-03T20:33:37;995.17;;;-0.80;100.00
29815;BME280;16708;50.426;7.664;2023-03-03T20:38:29;995.17;;;-0.77;100.00
29815;BME280;16708;50.426;7.664;2023-03-03T20:53:10;995.06;;;-0.87;100.00
29815;BME280;16708;50.426;7.664;2023-03-03T20:58:03;995.10;;;-1.06;100.00
29815;BME280;16708;50.426;7.664;2023-03-03T21:12:43;995.18;;;-1.36;100.00
29815;BME280;16708;50.426;7.664;2023-03-03T21:22:31;995.18;;;-1.35;100.00
29815;BME280;16708;50.426;7.664;2023-03-03T21:32:19;995.33;;;-1.35;100.00
29815;BME280;16708;50.426;7.664;2023-03-03T21:47:00;995.29;;;-1.61;100.00
29815;BME280;16708;50.426;7.664;2023-03-03T21:51:51;995.30;;;-1.60;100.00
29815;BME280;16708;50.426;7.664;2023-03-03T21:56:44;995.32;;;-1.63;100.00
29815;BME280;16708;50.426;7.664;2023-03-03T22:01:38;995.35;;;-1.72;100.00
29815;BME280;16708;50.426;7.664;2023-03-03T22:06:32;995.37;;;-1.68;100.00
29815;BME280;16708;50.426;7.664;2023-03-03T22:11:26;995.36;;;-1.70;100.00
29815;BME280;16708;50.426;7.664;2023-03-03T22:16:20;995.38;;;-1.72;100.00
29815;BME280;16708;50.426;7.664;2023-03-03T22:21:14;995.33;;;-1.80;100.00
29815;BME280;16708;50.426;7.664;2023-03-03T22:26:06;995.38;;;-1.80;100.00
29815;BME280;16708;50.426;7.664;2023-03-03T22:31:00;995.39;;;-1.75;100.00
29815;BME280;16708;50.426;7.664;2023-03-03T22:35:53;995.39;;;-1.80;100.00
29815;BME280;16708;50.426;7.664;2023-03-03T22:40:47;995.45;;;-1.78;100.00
29815;BME280;16708;50.426;7.664;2023-03-03T22:45:41;995.40;;;-1.65;100.00
29815;BME280;16708;50.426;7.664;2023-03-03T22:50:35;995.46;;;-1.52;100.00
29815;BME280;16708;50.426;7.664;2023-03-03T22:55:29;995.43;;;-1.49;100.00
29815;BME280;16708;50.426;7.664;2023-03-03T23:00:24;995.34;;;-1.54;100.00
29815;BME280;16708;50.426;7.664;2023-03-03T23:05:17;995.37;;;-1.59;100.00
29815;BME280;16708;50.426;7.664;2023-03-03T23:10:11;995.41;;;-1.62;100.00
29815;BME280;16708;50.426;7.664;2023-03-03T23:15:05;995.36;;;-1.61;100.00
29815;BME280;16708;50.426;7.664;2023-03-03T23:19:59;995.35;;;-1.70;100.00
29815;BME280;16708;50.426;7.664;2023-03-03T23:24:53;995.34;;;-1.74;100.00
29815;BME280;16708;50.426;7.664;2023-03-03T23:29:47;995.35;;;-1.67;100.00
29815;BME280;16708;50.426;7.664;2023-03-03T23:34:41;995.29;;;-1.58;100.00
29815;BME280;16708;50.426;7.664;2023-03-03T23:39:35;995.27;;;-1.45;100.00
29815;BME280;16708;50.426;7.664;2023-03-03T23:44:29;995.35;;;-1.34;100.00
29815;BME280;16708;50.426;7.664;2023-03-03T23:49:23;995.34;;;-1.31;100.00
29815;BME280;16708;50.426;7.664;2023-03-03T23:54:17;995.30;;;-1.16;100.00
29815;BME280;16708;50.426;7.664;2023-03-03T23:59:11;995.30;;;-0.94;100.00
